createdAt,value
2022-08-11T00:02:36.100Z,3.53
2022-08-11T00:05:08.186Z,3.63
2022-08-11T00:07:44.897Z,3.33
2022-08-11T00:10:15.411Z,2.78
2022-08-11T00:12:51.521Z,2.90
2022-08-11T00:15:20.413Z,3.15
2022-08-11T00:17:50.135Z,3.17
2022-08-11T00:20:19.875Z,2.53
2022-08-11T00:22:50.076Z,2.78
2022-08-11T00:25:20.162Z,2.90
2022-08-11T00:27:50.262Z,2.83
2022-08-11T00:30:18.940Z,2.70
2022-08-11T00:32:56.215Z,2.78
2022-08-11T00:35:51.814Z,2.35
2022-08-11T00:38:24.293Z,2.67
2022-08-11T00:40:58.626Z,2.72
2022-08-11T00:43:49.133Z,2.53
2022-08-11T00:46:27.988Z,2.95
2022-08-11T00:49:11.797Z,2.42
2022-08-11T00:52:05.034Z,2.78
2022-08-11T00:55:06.474Z,2.50
2022-08-11T00:57:59.616Z,2.83
2022-08-11T01:00:34.777Z,2.35
2022-08-11T01:03:29.745Z,2.70
2022-08-11T01:06:26.662Z,2.50
2022-08-11T01:09:26.202Z,2.90
2022-08-11T01:12:30.532Z,2.45
2022-08-11T01:15:26.071Z,2.58
2022-08-11T01:18:29.563Z,2.40
2022-08-11T01:21:49.669Z,2.70
2022-08-11T01:24:58.701Z,2.67
2022-08-11T01:28:26.081Z,2.97
2022-08-11T01:31:29.906Z,3.20
2022-08-11T01:34:40.016Z,2.75
2022-08-11T01:37:33.136Z,4.07
2022-08-11T01:40:30.924Z,2.90
2022-08-11T01:44:00.940Z,2.83
2022-08-11T01:46:34.171Z,2.75
2022-08-11T01:50:05.200Z,2.92
2022-08-11T01:52:10.884Z,2.97
2022-08-11T01:54:45.314Z,2.70
2022-08-11T01:57:30.301Z,2.97
2022-08-11T02:00:15.324Z,2.60
2022-08-11T02:02:54.641Z,2.75
2022-08-11T02:05:30.257Z,2.80
2022-08-11T02:08:09.826Z,2.60
2022-08-11T02:11:06.341Z,2.42
2022-08-11T02:13:48.925Z,2.75
2022-08-11T02:16:29.074Z,2.75
2022-08-11T02:19:24.529Z,2.80
2022-08-11T02:22:18.647Z,2.75
2022-08-11T02:25:00.891Z,2.92
2022-08-11T02:27:42.399Z,2.78
2022-08-11T02:30:15.257Z,3.17
2022-08-11T02:33:09.297Z,2.80
2022-08-11T02:35:45.788Z,2.88
2022-08-11T02:38:24.696Z,3.28
2022-08-11T02:41:02.141Z,3.20
2022-08-11T02:43:48.061Z,3.70
2022-08-11T02:46:25.761Z,3.03
2022-08-11T02:49:30.155Z,3.05
2022-08-11T02:52:08.233Z,3.20
2022-08-11T02:54:43.713Z,3.70
2022-08-11T02:57:26.067Z,2.85
2022-08-11T03:00:01.716Z,3.42
2022-08-11T03:02:54.320Z,3.85
2022-08-11T03:05:34.767Z,3.28
2022-08-11T03:08:24.638Z,3.17
2022-08-11T03:11:23.801Z,2.60
2022-08-11T03:14:21.049Z,3.17
2022-08-11T03:16:57.889Z,2.42
2022-08-11T03:19:35.831Z,2.92
2022-08-11T03:22:23.457Z,2.90
2022-08-11T03:25:03.164Z,3.10
2022-08-11T03:27:42.028Z,3.33
2022-08-11T03:30:15.786Z,2.67
2022-08-11T03:33:15.649Z,3.70
2022-08-11T03:35:55.533Z,3.35
2022-08-11T03:38:30.525Z,3.15
2022-08-11T03:42:03.787Z,3.08
2022-08-11T03:44:35.667Z,2.95
2022-08-11T03:47:24.845Z,2.60
2022-08-11T03:50:07.073Z,2.90
2022-08-11T03:52:59.299Z,3.10
2022-08-11T03:55:41.005Z,3.15
2022-08-11T03:58:32.142Z,2.85
2022-08-11T04:01:38.293Z,2.90
2022-08-11T04:04:50.588Z,3.33
2022-08-11T04:07:53.281Z,3.53
2022-08-11T04:10:48.721Z,3.20
2022-08-11T04:14:21.305Z,3.22
2022-08-11T04:17:04.734Z,3.45
2022-08-11T04:20:04.194Z,3.08
2022-08-11T04:24:36.771Z,2.95
2022-08-11T04:26:37.749Z,3.45
2022-08-11T04:29:25.018Z,3.50
2022-08-11T04:32:27.640Z,3.72
2022-08-11T04:35:15.338Z,3.63
2022-08-11T04:37:53.716Z,3.50
2022-08-11T04:40:54.958Z,3.65
2022-08-11T04:44:06.859Z,3.38
2022-08-11T04:47:09.242Z,3.58
2022-08-11T04:50:14.039Z,3.50
2022-08-11T04:53:18.743Z,3.58
2022-08-11T04:56:32.094Z,3.78
2022-08-11T04:59:52.940Z,3.65
2022-08-11T05:03:09.706Z,3.83
2022-08-11T05:05:57.256Z,3.75
2022-08-11T05:09:01.549Z,4.00
2022-08-11T05:12:03.685Z,3.83
2022-08-11T05:14:53.257Z,3.50
2022-08-11T05:17:56.515Z,3.88
2022-08-11T05:20:44.996Z,4.63
2022-08-11T05:23:31.609Z,3.83
2022-08-11T05:26:47.541Z,4.13
2022-08-11T05:29:53.722Z,4.03
2022-08-11T05:32:42.482Z,3.97
2022-08-11T05:36:00.898Z,3.53
2022-08-11T05:38:19.298Z,4.07
2022-08-11T05:41:09.315Z,4.22
2022-08-11T05:44:19.851Z,3.53
2022-08-11T05:47:07.666Z,4.07
2022-08-11T05:49:57.807Z,4.50
2022-08-11T05:52:47.197Z,4.38
2022-08-11T05:55:35.256Z,4.53
2022-08-11T05:58:05.809Z,3.70
2022-08-11T06:00:43.278Z,4.70
2022-08-11T06:03:12.286Z,4.95
2022-08-11T06:05:43.419Z,4.22
2022-08-11T06:08:14.488Z,4.25
2022-08-11T06:10:45.049Z,4.47
2022-08-11T06:13:17.889Z,4.40
2022-08-11T06:15:48.350Z,4.72
2022-08-11T06:18:17.634Z,4.18
2022-08-11T06:20:50.096Z,4.53
2022-08-11T06:23:23.661Z,4.57
2022-08-11T06:25:56.193Z,4.40
2022-08-11T06:28:33.712Z,4.15
2022-08-11T06:31:03.601Z,4.30
2022-08-11T06:33:36.485Z,3.95
2022-08-11T06:36:14.148Z,4.28
2022-08-11T06:38:54.899Z,4.47
2022-08-11T06:41:31.906Z,3.90
2022-08-11T06:44:17.357Z,4.25
2022-08-11T06:46:50.885Z,4.00
2022-08-11T06:49:39.312Z,3.88
2022-08-11T06:52:34.596Z,4.18
2022-08-11T06:55:11.445Z,4.32
2022-08-11T06:58:14.668Z,3.78
2022-08-11T07:00:43.505Z,4.10
2022-08-11T07:03:14.077Z,3.70
2022-08-11T07:05:48.723Z,3.90
2022-08-11T07:08:53.485Z,3.90
2022-08-11T07:12:04.876Z,3.70
2022-08-11T07:14:51.126Z,3.17
2022-08-11T07:17:22.328Z,3.38
2022-08-11T07:20:26.156Z,3.40
2022-08-11T07:23:15.938Z,3.58
2022-08-11T07:26:07.521Z,3.88
2022-08-11T07:28:58.614Z,3.40
2022-08-11T07:31:42.274Z,3.70
2022-08-11T07:34:20.481Z,3.35
2022-08-11T07:36:53.852Z,3.20
2022-08-11T07:39:24.575Z,3.15
2022-08-11T07:41:57.228Z,2.85
2022-08-11T07:44:34.289Z,2.70
2022-08-11T07:47:21.649Z,3.20
2022-08-11T07:50:09.100Z,2.72
2022-08-11T07:52:40.671Z,3.35
2022-08-11T07:55:14.643Z,3.05
2022-08-11T07:58:15.468Z,2.65
2022-08-11T08:01:09.952Z,2.97
2022-08-11T08:03:58.274Z,3.05
2022-08-11T08:06:45.593Z,2.83
2022-08-11T08:09:34.042Z,2.58
2022-08-11T08:12:21.836Z,2.97
2022-08-11T08:15:10.136Z,2.65
2022-08-11T08:18:09.744Z,2.58
2022-08-11T08:20:50.073Z,2.47
2022-08-11T08:23:33.485Z,2.80
2022-08-11T08:26:05.574Z,2.80
2022-08-11T08:28:35.035Z,2.90
2022-08-11T08:31:03.870Z,2.90
2022-08-11T08:33:33.538Z,2.75
2022-08-11T08:36:12.909Z,3.35
2022-08-11T08:38:43.116Z,2.70
2022-08-11T08:41:16.350Z,3.00
2022-08-11T08:43:49.592Z,3.10
2022-08-11T08:46:28.220Z,2.75
2022-08-11T08:48:58.484Z,2.88
2022-08-11T08:52:01.069Z,2.60
2022-08-11T08:54:31.563Z,2.95
2022-08-11T08:57:02.505Z,2.95
2022-08-11T08:59:47.769Z,2.70
2022-08-11T09:02:33.607Z,3.08
2022-08-11T09:05:04.702Z,3.10
2022-08-11T09:07:39.333Z,3.10
2022-08-11T09:10:10.834Z,2.97
2022-08-11T09:12:42.335Z,3.00
2022-08-11T09:15:12.559Z,2.83
2022-08-11T09:17:45.491Z,3.20
2022-08-11T09:20:15.934Z,2.90
2022-08-11T09:23:54.592Z,2.90
2022-08-11T09:26:13.872Z,2.70
2022-08-11T09:28:46.292Z,3.00
2022-08-11T09:31:16.484Z,3.00
2022-08-11T09:33:46.992Z,2.40
2022-08-11T09:36:29.284Z,3.22
2022-08-11T09:39:24.693Z,2.63
2022-08-11T09:42:01.399Z,2.92
2022-08-11T09:44:53.032Z,2.90
2022-08-11T09:47:24.482Z,2.75
2022-08-11T09:50:00.811Z,2.90
2022-08-11T09:52:34.083Z,2.88
2022-08-11T09:55:11.128Z,2.95
2022-08-11T09:58:04.233Z,2.45
2022-08-11T10:00:37.299Z,2.97
2022-08-11T10:03:09.214Z,2.85
2022-08-11T10:05:57.268Z,2.83
2022-08-11T10:08:31.057Z,3.13
2022-08-11T10:10:59.496Z,2.90
2022-08-11T10:14:31.647Z,2.90
2022-08-11T10:16:26.396Z,2.80
2022-08-11T10:18:56.348Z,2.75
2022-08-11T10:21:38.764Z,3.05
2022-08-11T10:24:25.735Z,2.60
2022-08-11T10:26:55.927Z,2.70
2022-08-11T10:29:49.607Z,3.13
2022-08-11T10:32:44.234Z,3.08
2022-08-11T10:35:27.422Z,2.70
2022-08-11T10:38:06.532Z,2.95
2022-08-11T10:40:40.115Z,3.03
2022-08-11T10:43:13.699Z,3.40
2022-08-11T10:46:04.521Z,2.72
2022-08-11T10:48:38.108Z,2.95
2022-08-11T10:51:50.430Z,2.53
2022-08-11T10:54:24.964Z,3.00
2022-08-11T10:57:13.085Z,2.83
2022-08-11T10:59:43.487Z,3.20
2022-08-11T11:02:15.495Z,2.92
2022-08-11T11:04:58.294Z,2.70
2022-08-11T11:07:37.766Z,3.05
2022-08-11T11:10:14.391Z,3.13
2022-08-11T11:13:04.048Z,3.03
2022-08-11T11:15:54.506Z,3.17
2022-08-11T11:18:26.325Z,3.13
2022-08-11T11:20:58.523Z,3.10
2022-08-11T11:23:30.008Z,3.30
2022-08-11T11:26:33.144Z,3.40
2022-08-11T11:29:28.015Z,2.92
2022-08-11T11:32:10.604Z,2.78
2022-08-11T11:34:59.448Z,2.50
2022-08-11T11:37:30.521Z,2.95
2022-08-11T11:39:59.845Z,2.80
2022-08-11T11:42:30.719Z,2.75
2022-08-11T11:45:01.328Z,3.13
2022-08-11T11:47:31.274Z,3.28
2022-08-11T11:50:00.237Z,3.20
2022-08-11T11:52:29.201Z,2.67
2022-08-11T11:55:00.445Z,2.95
2022-08-11T11:57:58.618Z,2.95
2022-08-11T12:00:47.971Z,3.17
2022-08-11T12:03:18.005Z,2.75
2022-08-11T12:05:47.177Z,2.60
2022-08-11T12:08:17.259Z,3.30
2022-08-11T12:10:48.341Z,2.53
2022-08-11T12:13:36.456Z,2.63
2022-08-11T12:16:34.410Z,2.50
2022-08-11T12:18:56.872Z,2.80
2022-08-11T12:21:26.004Z,2.60
2022-08-11T12:24:14.409Z,2.70
2022-08-11T12:27:15.966Z,2.70
2022-08-11T12:29:54.539Z,2.67
2022-08-11T12:32:25.709Z,2.47
2022-08-11T12:34:57.287Z,2.70
2022-08-11T12:37:31.434Z,2.58
2022-08-11T12:40:43.589Z,2.75
2022-08-11T12:43:38.265Z,2.47
2022-08-11T12:46:18.334Z,2.50
2022-08-11T12:49:07.239Z,2.97
2022-08-11T12:52:11.653Z,2.80
2022-08-11T12:54:51.495Z,2.50
2022-08-11T12:57:44.452Z,2.22
2022-08-11T13:00:31.479Z,2.60
2022-08-11T13:03:19.596Z,2.75
2022-08-11T13:05:49.648Z,2.50
2022-08-11T13:08:19.301Z,2.88
2022-08-11T13:11:05.820Z,2.90
2022-08-11T13:13:55.878Z,2.88
2022-08-11T13:16:24.246Z,3.08
2022-08-11T13:18:54.493Z,3.03
2022-08-11T13:21:24.049Z,2.40
2022-08-11T13:24:01.691Z,2.92
2022-08-11T13:26:43.114Z,2.85
2022-08-11T13:29:19.524Z,3.22
2022-08-11T13:31:48.459Z,2.60
2022-08-11T13:34:20.397Z,2.85
2022-08-11T13:36:52.312Z,2.80
2022-08-11T13:39:23.914Z,3.20
2022-08-11T13:41:56.763Z,3.00
2022-08-11T13:44:28.381Z,2.78
2022-08-11T13:47:01.546Z,3.13
2022-08-11T13:49:32.642Z,3.08
2022-08-11T13:52:01.257Z,3.10
2022-08-11T13:54:33.065Z,2.60
2022-08-11T13:57:08.136Z,2.65
2022-08-11T13:59:51.725Z,2.65
2022-08-11T14:02:28.425Z,2.88
2022-08-11T14:05:04.083Z,2.78
2022-08-11T14:07:38.179Z,2.80
2022-08-11T14:10:09.006Z,2.90
2022-08-11T14:12:57.158Z,2.92
2022-08-11T14:15:28.867Z,2.90
2022-08-11T14:18:03.372Z,2.60
2022-08-11T14:20:49.659Z,2.88
2022-08-11T14:23:19.182Z,2.97
2022-08-11T14:26:02.838Z,2.60
2022-08-11T14:28:41.695Z,2.88
2022-08-11T14:31:14.003Z,2.75
2022-08-11T14:34:00.643Z,2.80
2022-08-11T14:36:35.556Z,2.63
2022-08-11T14:39:09.166Z,2.67
2022-08-11T14:42:09.929Z,2.35
2022-08-11T14:45:02.959Z,2.45
2022-08-11T14:47:34.749Z,2.28
2022-08-11T14:50:11.800Z,2.80
2022-08-11T14:52:47.907Z,2.58
2022-08-11T14:55:34.321Z,2.72
2022-08-11T14:58:03.593Z,2.67
2022-08-11T15:00:34.319Z,2.40
2022-08-11T15:03:12.983Z,2.60
2022-08-11T15:05:56.399Z,2.97
2022-08-11T15:08:47.364Z,2.45
2022-08-11T15:11:36.276Z,2.17
2022-08-11T15:14:07.285Z,2.30
2022-08-11T15:16:54.973Z,2.55
2022-08-11T15:19:27.480Z,2.63
2022-08-11T15:22:13.212Z,2.83
2022-08-11T15:24:43.052Z,2.45
2022-08-11T15:27:32.310Z,2.25
2022-08-11T15:30:32.797Z,2.80
2022-08-11T15:33:23.548Z,2.53
2022-08-11T15:36:10.861Z,2.38
2022-08-11T15:38:44.324Z,2.85
2022-08-11T15:41:33.986Z,2.70
2022-08-11T15:45:01.729Z,2.65
2022-08-11T15:47:35.964Z,2.50
2022-08-11T15:50:11.075Z,2.70
2022-08-11T15:52:51.020Z,2.50
2022-08-11T15:55:20.580Z,3.13
2022-08-11T15:58:06.693Z,2.58
2022-08-11T16:01:01.261Z,2.72
2022-08-11T16:04:08.176Z,2.22
2022-08-11T16:06:47.740Z,2.30
2022-08-11T16:09:22.286Z,2.38
2022-08-11T16:11:51.374Z,2.85
2022-08-11T16:14:39.214Z,2.53
2022-08-11T16:17:09.342Z,2.53
2022-08-11T16:19:38.639Z,2.50
2022-08-11T16:22:11.393Z,2.70
2022-08-11T16:27:05.336Z,2.50
2022-08-11T16:27:35.041Z,2.30
2022-08-11T16:30:06.975Z,2.70
2022-08-11T16:32:38.224Z,2.45
2022-08-11T16:35:27.196Z,2.50
2022-08-11T16:38:15.260Z,2.13
2022-08-11T16:40:44.967Z,2.75
2022-08-11T16:43:35.444Z,2.08
2022-08-11T16:46:24.212Z,2.63
2022-08-11T16:48:53.824Z,2.50
2022-08-11T16:51:23.046Z,2.10
2022-08-11T16:54:05.251Z,2.50
2022-08-11T16:56:38.639Z,2.72
2022-08-11T16:59:16.587Z,2.47
2022-08-11T17:01:54.393Z,2.10
2022-08-11T17:04:55.005Z,2.83
2022-08-11T17:07:43.477Z,2.60
2022-08-11T17:10:51.257Z,2.47
2022-08-11T17:13:27.157Z,2.75
2022-08-11T17:16:12.219Z,2.65
2022-08-11T17:18:58.628Z,2.50
2022-08-11T17:21:30.054Z,2.85
2022-08-11T17:24:08.116Z,2.83
2022-08-11T17:26:58.233Z,2.70
2022-08-11T17:29:30.049Z,2.38
2022-08-11T17:32:18.023Z,2.55
2022-08-11T17:35:07.001Z,2.58
2022-08-11T17:37:37.737Z,2.55
2022-08-11T17:40:11.289Z,3.03
2022-08-11T17:42:58.642Z,2.80
2022-08-11T17:45:46.161Z,2.85
2022-08-11T17:48:27.752Z,2.80
2022-08-11T17:51:01.176Z,2.58
2022-08-11T17:54:15.287Z,3.28
2022-08-11T17:56:56.530Z,3.22
2022-08-11T17:59:43.829Z,3.17
2022-08-11T18:02:37.891Z,3.88
2022-08-11T18:05:12.713Z,3.08
2022-08-11T18:08:01.698Z,3.00
2022-08-11T18:10:49.554Z,2.58
2022-08-11T18:13:37.173Z,4.00
2022-08-11T18:16:23.538Z,2.80
2022-08-11T18:19:08.926Z,3.08
2022-08-11T18:22:03.518Z,2.90
2022-08-11T18:25:05.805Z,2.80
2022-08-11T18:27:53.191Z,3.67
2022-08-11T18:30:40.063Z,2.90
2022-08-11T18:36:38.641Z,2.80
2022-08-11T18:39:27.711Z,2.78
2022-08-11T18:42:19.548Z,3.17
2022-08-11T18:45:18.441Z,2.65
2022-08-11T18:48:06.590Z,2.85
2022-08-11T18:51:28.073Z,2.85
2022-08-11T18:54:04.143Z,3.10
2022-08-11T18:56:50.463Z,2.95
2022-08-11T18:59:42.572Z,3.28
2022-08-11T19:02:29.316Z,2.90
2022-08-11T19:05:18.139Z,3.08
2022-08-11T19:08:07.703Z,2.88
2022-08-11T19:10:54.509Z,2.70
2022-08-11T19:13:43.830Z,2.55
2022-08-11T19:16:32.655Z,2.80
2022-08-11T19:19:19.129Z,3.00
2022-08-11T19:22:06.040Z,2.63
2022-08-11T19:24:53.544Z,3.05
2022-08-11T19:27:42.820Z,3.28
2022-08-11T19:30:29.771Z,3.22
2022-08-11T19:33:18.393Z,3.60
2022-08-11T19:36:25.357Z,2.90
2022-08-11T19:39:13.091Z,3.15
2022-08-11T19:42:00.561Z,3.13
2022-08-11T19:44:47.244Z,2.95
2022-08-11T19:47:36.435Z,2.95
2022-08-11T19:50:25.058Z,3.33
2022-08-11T19:53:17.295Z,2.90
2022-08-11T19:56:05.153Z,2.95
2022-08-11T19:58:52.156Z,3.10
2022-08-11T20:01:38.011Z,3.17
2022-08-11T20:04:43.699Z,3.10
2022-08-11T20:07:33.483Z,2.92
2022-08-11T20:10:22.857Z,3.03
2022-08-11T20:13:09.941Z,2.90
2022-08-11T20:15:57.576Z,3.17
2022-08-11T20:18:44.015Z,3.30
2022-08-11T20:21:32.083Z,2.90
2022-08-11T20:24:21.175Z,3.13
2022-08-11T20:27:08.169Z,3.38
2022-08-11T20:30:11.226Z,3.50
2022-08-11T20:32:58.497Z,3.45
2022-08-11T20:35:45.898Z,3.53
2022-08-11T20:38:33.787Z,3.78
2022-08-11T20:41:22.386Z,3.42
2022-08-11T20:44:09.663Z,3.42
2022-08-11T20:46:57.732Z,4.13
2022-08-11T20:52:52.788Z,3.72
2022-08-11T20:55:51.838Z,3.80
2022-08-11T20:59:13.322Z,4.30
2022-08-11T21:01:52.038Z,3.70
2022-08-11T21:04:54.787Z,4.30
2022-08-11T21:07:55.143Z,4.32
2022-08-11T21:10:43.771Z,4.10
2022-08-11T21:13:34.146Z,4.57
2022-08-11T21:16:27.242Z,4.05
2022-08-11T21:19:18.295Z,4.05
2022-08-11T21:22:06.250Z,4.20
2022-08-11T21:24:52.939Z,3.53
2022-08-11T21:27:39.920Z,4.03
2022-08-11T21:30:27.309Z,3.58
2022-08-11T21:33:14.172Z,3.60
2022-08-11T21:36:01.342Z,3.53
2022-08-11T21:38:47.712Z,3.50
2022-08-11T21:41:34.436Z,3.88
2022-08-11T21:44:22.338Z,3.97
2022-08-11T21:47:09.410Z,3.72
2022-08-11T21:49:59.390Z,3.80
2022-08-11T21:52:45.533Z,4.10
2022-08-11T21:55:32.582Z,3.78
2022-08-11T21:58:19.243Z,4.28
2022-08-11T22:01:05.400Z,3.92
2022-08-11T22:03:51.056Z,4.25
2022-08-11T22:06:39.779Z,4.18
2022-08-11T22:09:26.270Z,4.15
2022-08-11T22:12:29.950Z,4.18
2022-08-11T22:15:18.155Z,4.00
2022-08-11T22:18:03.758Z,3.83
2022-08-11T22:20:51.338Z,4.00
2022-08-11T22:23:39.465Z,4.10
2022-08-11T22:26:26.820Z,4.00
2022-08-11T22:29:12.637Z,3.90
2022-08-11T22:31:59.672Z,4.47
2022-08-11T22:34:53.421Z,4.18
2022-08-11T22:37:41.020Z,4.47
2022-08-11T22:40:29.707Z,4.20
2022-08-11T22:43:15.517Z,4.45
2022-08-11T22:46:01.597Z,5.20
2022-08-11T22:48:49.095Z,4.55
2022-08-11T22:51:38.214Z,4.32
2022-08-11T22:54:24.484Z,4.63
2022-08-11T22:57:12.337Z,4.78
2022-08-11T22:59:59.479Z,4.90
2022-08-11T23:02:46.851Z,4.80
2022-08-11T23:05:34.191Z,4.97
2022-08-11T23:08:21.403Z,4.70
2022-08-11T23:11:08.453Z,4.28
2022-08-11T23:13:56.268Z,4.80
2022-08-11T23:16:43.771Z,4.50
2022-08-11T23:20:06.742Z,4.45
2022-08-11T23:22:49.606Z,4.60
2022-08-11T23:25:37.173Z,4.78
2022-08-11T23:28:24.975Z,4.63
2022-08-11T23:31:15.773Z,4.80
2022-08-11T23:34:05.184Z,5.45
2022-08-11T23:36:50.879Z,4.93
2022-08-11T23:39:36.558Z,4.82
2022-08-11T23:42:22.912Z,5.03
2022-08-11T23:45:10.272Z,4.75
2022-08-11T23:47:58.761Z,4.50
2022-08-11T23:50:44.670Z,4.43
2022-08-11T23:53:32.071Z,4.82
2022-08-11T23:56:21.783Z,5.15
2022-08-11T23:59:09.146Z,4.97
